PWSweather.com
Personal Weather Stations
Station Observations
IMAZOWIE6
WarszawaPL

WarszawaPL

Lat: 52.27957, Lon: 21.05489

Elevation: 100

Station Type: WS1080

http://stacjapogody.waw.pl/

High Low Average
Temperature 57.4°F14.1°C 41.5°F5.3°C 48.6°F9.2°C
Dew Point -167.1°F-110.6°C -168.6°F-111.4°C -167.9°F-111.1°C
Winds 4.0 mph 6.4 kmh Calm Calm 1.0 mph N1.6 kmh N
Wind Gusts 7.4 mph11.9 kmh 0.6 mph1.0 kmh 4.0 mph6.4 kmh
Humidity - - -
Pressure 29.24 in990.2 mb 29.03 in983.1 mb -
Precipitation 0.00 in0.0 mm - -
Hour Temp Dew Point Humidity Winds Wind Gusts Pressure Precip Precip Rate Daily Precip Total
12:06 AM 44.8°F7.1°C -168.3°F-111.3°C - 1.4 mph N2.3 kmh N 4.0 mph6.4 kmh 29.24 in990.2 mb 0.00 in0.0 mm 0.00 in0.0 mm 0.00 in0.0 mm
12:21 AM 44.8°F7.1°C -168.3°F-111.3°C - 0.6 mph N1.0 kmh N 2.8 mph4.5 kmh 29.24 in990.2 mb 0.00 in0.0 mm 0.00 in0.0 mm 0.00 in0.0 mm
12:36 AM 44.8°F7.1°C -168.3°F-111.3°C - Calm Calm 2.0 mph3.2 kmh 29.24 in990.2 mb 0.00 in0.0 mm 0.00 in0.0 mm 0.00 in0.0 mm
12:51 AM 44.6°F7.0°C -168.3°F-111.3°C - 0.6 mph N1.0 kmh N 4.0 mph6.4 kmh 29.23 in989.8 mb 0.00 in0.0 mm 0.00 in0.0 mm 0.00 in0.0 mm
01:06 AM 44.6°F7.0°C -168.3°F-111.3°C - 1.4 mph N2.3 kmh N 4.8 mph7.7 kmh 29.22 in989.5 mb 0.00 in0.0 mm 0.00 in0.0 mm 0.00 in0.0 mm
01:21 AM 44.6°F7.0°C -168.3°F-111.3°C - 0.6 mph N1.0 kmh N 2.8 mph4.5 kmh 29.21 in989.2 mb 0.00 in0.0 mm 0.00 in0.0 mm 0.00 in0.0 mm
01:36 AM 44.6°F7.0°C -168.3°F-111.3°C - 0.6 mph N1.0 kmh N 2.8 mph4.5 kmh 29.21 in989.2 mb 0.00 in0.0 mm 0.00 in0.0 mm 0.00 in0.0 mm
01:51 AM 44.6°F7.0°C -168.3°F-111.3°C - 2.0 mph N3.2 kmh N 4.8 mph7.7 kmh 29.20 in988.8 mb 0.00 in0.0 mm 0.00 in0.0 mm 0.00 in0.0 mm
02:06 AM 44.6°F7.0°C -168.3°F-111.3°C - 0.6 mph N1.0 kmh N 2.8 mph4.5 kmh 29.19 in988.5 mb 0.00 in0.0 mm 0.00 in0.0 mm 0.00 in0.0 mm
02:21 AM 44.4°F6.9°C -168.4°F-111.3°C - 1.4 mph N2.3 kmh N 4.0 mph6.4 kmh 29.19 in988.5 mb 0.00 in0.0 mm 0.00 in0.0 mm 0.00 in0.0 mm
02:36 AM 44.1°F6.7°C -168.4°F-111.3°C - 2.8 mph N4.5 kmh N 6.2 mph10.0 kmh 29.18 in988.1 mb 0.00 in0.0 mm 0.00 in0.0 mm 0.00 in0.0 mm
02:51 AM 43.7°F6.5°C -168.4°F-111.3°C - 1.4 mph N2.3 kmh N 5.4 mph8.7 kmh 29.18 in988.1 mb 0.00 in0.0 mm 0.00 in0.0 mm 0.00 in0.0 mm
03:06 AM 43.5°F6.4°C -168.4°F-111.3°C - 2.0 mph N3.2 kmh N 6.2 mph10.0 kmh 29.18 in988.1 mb 0.00 in0.0 mm 0.00 in0.0 mm 0.00 in0.0 mm
03:21 AM 43.3°F6.3°C -168.5°F-111.4°C - 1.4 mph N2.3 kmh N 4.8 mph7.7 kmh 29.17 in987.8 mb 0.00 in0.0 mm 0.00 in0.0 mm 0.00 in0.0 mm
03:36 AM 43.2°F6.2°C -168.5°F-111.4°C - 1.4 mph N2.3 kmh N 5.4 mph8.7 kmh 29.17 in987.8 mb 0.00 in0.0 mm 0.00 in0.0 mm 0.00 in0.0 mm
03:51 AM 43.2°F6.2°C -168.5°F-111.4°C - 2.8 mph N4.5 kmh N 5.4 mph8.7 kmh 29.16 in987.5 mb 0.00 in0.0 mm 0.00 in0.0 mm 0.00 in0.0 mm
04:06 AM 43.0°F6.1°C -168.5°F-111.4°C - 1.4 mph N2.3 kmh N 4.0 mph6.4 kmh 29.16 in987.5 mb 0.00 in0.0 mm 0.00 in0.0 mm 0.00 in0.0 mm
04:21 AM 42.8°F6.0°C -168.5°F-111.4°C - 1.4 mph N2.3 kmh N 6.2 mph10.0 kmh 29.16 in987.5 mb 0.00 in0.0 mm 0.00 in0.0 mm 0.00 in0.0 mm
04:36 AM 42.6°F5.9°C -168.5°F-111.4°C - 2.0 mph N3.2 kmh N 4.0 mph6.4 kmh 29.15 in987.1 mb 0.00 in0.0 mm 0.00 in0.0 mm 0.00 in0.0 mm
04:51 AM 42.4°F5.8°C -168.6°F-111.4°C - 0.6 mph N1.0 kmh N 3.4 mph5.5 kmh 29.15 in987.1 mb 0.00 in0.0 mm 0.00 in0.0 mm 0.00 in0.0 mm
05:06 AM 42.3°F5.7°C -168.6°F-111.4°C - 2.0 mph N3.2 kmh N 4.8 mph7.7 kmh 29.15 in987.1 mb 0.00 in0.0 mm 0.00 in0.0 mm 0.00 in0.0 mm
05:21 AM 42.3°F5.7°C -168.6°F-111.4°C - 2.8 mph N4.5 kmh N 6.8 mph10.9 kmh 29.14 in986.8 mb 0.00 in0.0 mm 0.00 in0.0 mm 0.00 in0.0 mm
05:36 AM 42.1°F5.6°C -168.6°F-111.4°C - 1.4 mph N2.3 kmh N 4.0 mph6.4 kmh 29.13 in986.5 mb 0.00 in0.0 mm 0.00 in0.0 mm 0.00 in0.0 mm
05:51 AM 42.1°F5.6°C -168.6°F-111.4°C - 2.8 mph N4.5 kmh N 7.4 mph11.9 kmh 29.13 in986.5 mb 0.00 in0.0 mm 0.00 in0.0 mm 0.00 in0.0 mm
06:06 AM 41.7°F5.4°C -168.6°F-111.4°C - 1.4 mph N2.3 kmh N 5.4 mph8.7 kmh 29.13 in986.5 mb 0.00 in0.0 mm 0.00 in0.0 mm 0.00 in0.0 mm
06:21 AM 41.5°F5.3°C -168.6°F-111.4°C - 2.0 mph N3.2 kmh N 5.4 mph8.7 kmh 29.13 in986.5 mb 0.00 in0.0 mm 0.00 in0.0 mm 0.00 in0.0 mm
06:36 AM 41.7°F5.4°C -168.6°F-111.4°C - 2.0 mph N3.2 kmh N 5.4 mph8.7 kmh 29.12 in986.1 mb 0.00 in0.0 mm 0.00 in0.0 mm 0.00 in0.0 mm
06:51 AM 42.1°F5.6°C -168.6°F-111.4°C - 1.4 mph N2.3 kmh N 4.0 mph6.4 kmh 29.12 in986.1 mb 0.00 in0.0 mm 0.00 in0.0 mm 0.00 in0.0 mm
07:06 AM 42.4°F5.8°C -168.6°F-111.4°C - 2.8 mph N4.5 kmh N 6.2 mph10.0 kmh 29.13 in986.5 mb 0.00 in0.0 mm 0.00 in0.0 mm 0.00 in0.0 mm
07:21 AM 43.5°F6.4°C -168.4°F-111.3°C - 2.0 mph N3.2 kmh N 6.2 mph10.0 kmh 29.12 in986.1 mb 0.00 in0.0 mm 0.00 in0.0 mm 0.00 in0.0 mm
07:36 AM 45.0°F7.2°C -168.3°F-111.3°C - 1.4 mph N2.3 kmh N 3.4 mph5.5 kmh 29.12 in986.1 mb 0.00 in0.0 mm 0.00 in0.0 mm 0.00 in0.0 mm
07:51 AM 46.6°F8.1°C -168.1°F-111.2°C - Calm Calm 2.0 mph3.2 kmh 29.11 in985.8 mb 0.00 in0.0 mm 0.00 in0.0 mm 0.00 in0.0 mm
08:06 AM 46.0°F7.8°C -168.2°F-111.2°C - 2.0 mph N3.2 kmh N 6.2 mph10.0 kmh 29.11 in985.8 mb 0.00 in0.0 mm 0.00 in0.0 mm 0.00 in0.0 mm
08:21 AM 45.0°F7.2°C -168.3°F-111.3°C - 1.4 mph N2.3 kmh N 5.4 mph8.7 kmh 29.10 in985.4 mb 0.00 in0.0 mm 0.00 in0.0 mm 0.00 in0.0 mm
08:36 AM 45.7°F7.6°C -168.2°F-111.2°C - 1.4 mph N2.3 kmh N 3.4 mph5.5 kmh 29.10 in985.4 mb 0.00 in0.0 mm 0.00 in0.0 mm 0.00 in0.0 mm
08:51 AM 47.7°F8.7°C -168.0°F-111.1°C - Calm Calm 3.4 mph5.5 kmh 29.09 in985.1 mb 0.00 in0.0 mm 0.00 in0.0 mm 0.00 in0.0 mm
09:06 AM 46.9°F8.3°C -168.1°F-111.2°C - 2.0 mph N3.2 kmh N 6.2 mph10.0 kmh 29.09 in985.1 mb 0.00 in0.0 mm 0.00 in0.0 mm 0.00 in0.0 mm
09:21 AM 47.3°F8.5°C -168.1°F-111.2°C - 0.6 mph N1.0 kmh N 2.8 mph4.5 kmh 29.08 in984.8 mb 0.00 in0.0 mm 0.00 in0.0 mm 0.00 in0.0 mm
09:36 AM 47.1°F8.4°C -168.1°F-111.2°C - Calm Calm 2.0 mph3.2 kmh 29.08 in984.8 mb 0.00 in0.0 mm 0.00 in0.0 mm 0.00 in0.0 mm
09:51 AM 47.8°F8.8°C -168.0°F-111.1°C - Calm Calm 0.6 mph1.0 kmh 29.08 in984.8 mb 0.00 in0.0 mm 0.00 in0.0 mm 0.00 in0.0 mm
10:06 AM 50.7°F10.4°C -167.7°F-110.9°C - Calm Calm 0.6 mph1.0 kmh 29.08 in984.8 mb 0.00 in0.0 mm 0.00 in0.0 mm 0.00 in0.0 mm
10:21 AM 50.2°F10.1°C -167.8°F-111.0°C - Calm Calm 1.4 mph2.3 kmh 29.06 in984.1 mb 0.00 in0.0 mm 0.00 in0.0 mm 0.00 in0.0 mm
10:36 AM 50.4°F10.2°C -167.8°F-111.0°C - Calm Calm 2.0 mph3.2 kmh 29.07 in984.4 mb 0.00 in0.0 mm 0.00 in0.0 mm 0.00 in0.0 mm
10:51 AM 51.6°F10.9°C -167.6°F-110.9°C - Calm Calm 2.0 mph3.2 kmh 29.06 in984.1 mb 0.00 in0.0 mm 0.00 in0.0 mm 0.00 in0.0 mm
11:06 AM 51.8°F11.0°C -167.6°F-110.9°C - Calm Calm 1.4 mph2.3 kmh 29.06 in984.1 mb 0.00 in0.0 mm 0.00 in0.0 mm 0.00 in0.0 mm
11:21 AM 52.7°F11.5°C -167.5°F-110.8°C - 1.4 mph N2.3 kmh N 4.8 mph7.7 kmh 29.06 in984.1 mb 0.00 in0.0 mm 0.00 in0.0 mm 0.00 in0.0 mm
11:36 AM 52.7°F11.5°C -167.5°F-110.8°C - 1.4 mph N2.3 kmh N 3.4 mph5.5 kmh 29.06 in984.1 mb 0.00 in0.0 mm 0.00 in0.0 mm 0.00 in0.0 mm
11:51 AM 53.4°F11.9°C -167.5°F-110.8°C - 0.6 mph N1.0 kmh N 4.0 mph6.4 kmh 29.06 in984.1 mb 0.00 in0.0 mm 0.00 in0.0 mm 0.00 in0.0 mm
12:06 PM 53.8°F12.1°C -167.4°F-110.8°C - 1.4 mph N2.3 kmh N 4.8 mph7.7 kmh 29.05 in983.7 mb 0.00 in0.0 mm 0.00 in0.0 mm 0.00 in0.0 mm
12:21 PM 54.3°F12.4°C -167.4°F-110.8°C - Calm Calm 2.0 mph3.2 kmh 29.05 in983.7 mb 0.00 in0.0 mm 0.00 in0.0 mm 0.00 in0.0 mm
12:36 PM 54.1°F12.3°C -167.4°F-110.8°C - 0.6 mph N1.0 kmh N 4.8 mph7.7 kmh 29.04 in983.4 mb 0.00 in0.0 mm 0.00 in0.0 mm 0.00 in0.0 mm
12:51 PM 54.7°F12.6°C -167.3°F-110.7°C - 1.4 mph N2.3 kmh N 6.2 mph10.0 kmh 29.04 in983.4 mb 0.00 in0.0 mm 0.00 in0.0 mm 0.00 in0.0 mm
01:06 PM 55.2°F12.9°C -167.3°F-110.7°C - Calm Calm 2.0 mph3.2 kmh 29.04 in983.4 mb 0.00 in0.0 mm 0.00 in0.0 mm 0.00 in0.0 mm
01:21 PM 56.3°F13.5°C -167.2°F-110.7°C - 2.0 mph N3.2 kmh N 5.4 mph8.7 kmh 29.03 in983.1 mb 0.00 in0.0 mm 0.00 in0.0 mm 0.00 in0.0 mm
01:36 PM 56.3°F13.5°C -167.2°F-110.7°C - Calm Calm 0.6 mph1.0 kmh 29.03 in983.1 mb 0.00 in0.0 mm 0.00 in0.0 mm 0.00 in0.0 mm
01:51 PM 57.2°F14.0°C -167.1°F-110.6°C - 3.4 mph N5.5 kmh N 6.2 mph10.0 kmh 29.04 in983.4 mb 0.00 in0.0 mm 0.00 in0.0 mm 0.00 in0.0 mm
02:06 PM 57.4°F14.1°C -167.1°F-110.6°C - 2.0 mph N3.2 kmh N 5.4 mph8.7 kmh 29.04 in983.4 mb 0.00 in0.0 mm 0.00 in0.0 mm 0.00 in0.0 mm
02:21 PM 56.8°F13.8°C -167.1°F-110.6°C - 2.0 mph N3.2 kmh N 4.0 mph6.4 kmh 29.03 in983.1 mb 0.00 in0.0 mm 0.00 in0.0 mm 0.00 in0.0 mm
02:36 PM 56.5°F13.6°C -167.2°F-110.7°C - 2.0 mph N3.2 kmh N 4.0 mph6.4 kmh 29.04 in983.4 mb 0.00 in0.0 mm 0.00 in0.0 mm 0.00 in0.0 mm
02:51 PM 56.1°F13.4°C -167.2°F-110.7°C - Calm Calm 2.8 mph4.5 kmh 29.04 in983.4 mb 0.00 in0.0 mm 0.00 in0.0 mm 0.00 in0.0 mm
03:06 PM 56.1°F13.4°C -167.2°F-110.7°C - 4.0 mph N6.4 kmh N 5.4 mph8.7 kmh 29.05 in983.7 mb 0.00 in0.0 mm 0.00 in0.0 mm 0.00 in0.0 mm
03:21 PM 55.4°F13.0°C -167.3°F-110.7°C - 2.8 mph N4.5 kmh N 6.2 mph10.0 kmh 29.05 in983.7 mb 0.00 in0.0 mm 0.00 in0.0 mm 0.00 in0.0 mm
03:36 PM 55.2°F12.9°C -167.3°F-110.7°C - 2.8 mph N4.5 kmh N 4.8 mph7.7 kmh 29.05 in983.7 mb 0.00 in0.0 mm 0.00 in0.0 mm 0.00 in0.0 mm
03:51 PM 54.9°F12.7°C -167.3°F-110.7°C - 1.4 mph N2.3 kmh N 3.4 mph5.5 kmh 29.05 in983.7 mb 0.00 in0.0 mm 0.00 in0.0 mm 0.00 in0.0 mm
04:06 PM 54.7°F12.6°C -167.3°F-110.7°C - 2.8 mph N4.5 kmh N 4.8 mph7.7 kmh 29.06 in984.1 mb 0.00 in0.0 mm 0.00 in0.0 mm 0.00 in0.0 mm
04:21 PM 54.0°F12.2°C -167.4°F-110.8°C - 2.0 mph N3.2 kmh N 3.4 mph5.5 kmh 29.06 in984.1 mb 0.00 in0.0 mm 0.00 in0.0 mm 0.00 in0.0 mm
04:36 PM 53.6°F12.0°C -167.4°F-110.8°C - 2.0 mph N3.2 kmh N 3.4 mph5.5 kmh 29.07 in984.4 mb 0.00 in0.0 mm 0.00 in0.0 mm 0.00 in0.0 mm
04:51 PM 53.4°F11.9°C -167.5°F-110.8°C - 2.0 mph N3.2 kmh N 4.0 mph6.4 kmh 29.06 in984.1 mb 0.00 in0.0 mm 0.00 in0.0 mm 0.00 in0.0 mm
05:06 PM 53.1°F11.7°C -167.5°F-110.8°C - 1.4 mph N2.3 kmh N 2.8 mph4.5 kmh 29.04 in983.4 mb 0.00 in0.0 mm 0.00 in0.0 mm 0.00 in0.0 mm
05:21 PM 52.7°F11.5°C -167.5°F-110.8°C - 2.8 mph N4.5 kmh N 4.0 mph6.4 kmh 29.05 in983.7 mb 0.00 in0.0 mm 0.00 in0.0 mm 0.00 in0.0 mm
05:36 PM 52.2°F11.2°C -167.6°F-110.9°C - 1.4 mph N2.3 kmh N 2.0 mph3.2 kmh 29.06 in984.1 mb 0.00 in0.0 mm 0.00 in0.0 mm 0.00 in0.0 mm
05:51 PM 51.8°F11.0°C -167.6°F-110.9°C - 2.0 mph N3.2 kmh N 4.0 mph6.4 kmh 29.07 in984.4 mb 0.00 in0.0 mm 0.00 in0.0 mm 0.00 in0.0 mm
06:06 PM 51.4°F10.8°C -167.7°F-110.9°C - 0.6 mph N1.0 kmh N 2.8 mph4.5 kmh 29.07 in984.4 mb 0.00 in0.0 mm 0.00 in0.0 mm 0.00 in0.0 mm
06:21 PM 51.6°F10.9°C -167.6°F-110.9°C - 1.4 mph N2.3 kmh N 3.4 mph5.5 kmh 29.07 in984.4 mb 0.00 in0.0 mm 0.00 in0.0 mm 0.00 in0.0 mm
06:36 PM 50.9°F10.5°C -167.7°F-110.9°C - 1.4 mph N2.3 kmh N 3.4 mph5.5 kmh 29.09 in985.1 mb 0.00 in0.0 mm 0.00 in0.0 mm 0.00 in0.0 mm
06:51 PM 50.5°F10.3°C -167.7°F-110.9°C - 3.4 mph N5.5 kmh N 6.2 mph10.0 kmh 29.10 in985.4 mb 0.00 in0.0 mm 0.00 in0.0 mm 0.00 in0.0 mm
07:06 PM 50.5°F10.3°C -167.7°F-110.9°C - 2.0 mph N3.2 kmh N 4.0 mph6.4 kmh 29.11 in985.8 mb 0.00 in0.0 mm 0.00 in0.0 mm 0.00 in0.0 mm
07:21 PM 50.0°F10.0°C -167.8°F-111.0°C - 1.4 mph N2.3 kmh N 2.0 mph3.2 kmh 29.11 in985.8 mb 0.00 in0.0 mm 0.00 in0.0 mm 0.00 in0.0 mm
07:36 PM 50.2°F10.1°C -167.8°F-111.0°C - 1.4 mph N2.3 kmh N 2.8 mph4.5 kmh 29.11 in985.8 mb 0.00 in0.0 mm 0.00 in0.0 mm 0.00 in0.0 mm
07:51 PM 50.2°F10.1°C -167.8°F-111.0°C - 1.4 mph N2.3 kmh N 2.8 mph4.5 kmh 29.10 in985.4 mb 0.00 in0.0 mm 0.00 in0.0 mm 0.00 in0.0 mm
08:06 PM 49.8°F9.9°C -167.8°F-111.0°C - 1.4 mph N2.3 kmh N 4.0 mph6.4 kmh 29.10 in985.4 mb 0.00 in0.0 mm 0.00 in0.0 mm 0.00 in0.0 mm
08:21 PM 49.3°F9.6°C -167.9°F-111.1°C - 2.0 mph N3.2 kmh N 4.0 mph6.4 kmh 29.09 in985.1 mb 0.00 in0.0 mm 0.00 in0.0 mm 0.00 in0.0 mm
08:36 PM 49.3°F9.6°C -167.9°F-111.1°C - 1.4 mph N2.3 kmh N 2.8 mph4.5 kmh 29.09 in985.1 mb 0.00 in0.0 mm 0.00 in0.0 mm 0.00 in0.0 mm
08:51 PM 49.5°F9.7°C -167.9°F-111.1°C - 1.4 mph N2.3 kmh N 4.0 mph6.4 kmh 29.08 in984.8 mb 0.00 in0.0 mm 0.00 in0.0 mm 0.00 in0.0 mm
09:06 PM 49.3°F9.6°C -167.9°F-111.1°C - 0.6 mph N1.0 kmh N 2.8 mph4.5 kmh 29.08 in984.8 mb 0.00 in0.0 mm 0.00 in0.0 mm 0.00 in0.0 mm
09:21 PM 48.6°F9.2°C -167.9°F-111.1°C - 0.6 mph N1.0 kmh N 1.4 mph2.3 kmh 29.08 in984.8 mb 0.00 in0.0 mm 0.00 in0.0 mm 0.00 in0.0 mm
09:36 PM 47.7°F8.7°C -168.0°F-111.1°C - Calm Calm 2.0 mph3.2 kmh 29.08 in984.8 mb 0.00 in0.0 mm 0.00 in0.0 mm 0.00 in0.0 mm
09:51 PM 47.3°F8.5°C -168.1°F-111.2°C - Calm Calm 2.0 mph3.2 kmh 29.08 in984.8 mb 0.00 in0.0 mm 0.00 in0.0 mm 0.00 in0.0 mm
10:06 PM 47.1°F8.4°C -168.1°F-111.2°C - Calm Calm 1.4 mph2.3 kmh 29.08 in984.8 mb 0.00 in0.0 mm 0.00 in0.0 mm 0.00 in0.0 mm
10:21 PM 46.8°F8.2°C -168.1°F-111.2°C - 1.4 mph N2.3 kmh N 4.0 mph6.4 kmh 29.07 in984.4 mb 0.00 in0.0 mm 0.00 in0.0 mm 0.00 in0.0 mm
10:36 PM 46.9°F8.3°C -168.1°F-111.2°C - 0.6 mph N1.0 kmh N 2.8 mph4.5 kmh 29.07 in984.4 mb 0.00 in0.0 mm 0.00 in0.0 mm 0.00 in0.0 mm
10:51 PM 46.8°F8.2°C -168.1°F-111.2°C - 0.6 mph N1.0 kmh N 2.0 mph3.2 kmh 29.07 in984.4 mb 0.00 in0.0 mm 0.00 in0.0 mm 0.00 in0.0 mm
11:06 PM 46.4°F8.0°C -168.2°F-111.2°C - Calm Calm 2.0 mph3.2 kmh 29.07 in984.4 mb 0.00 in0.0 mm 0.00 in0.0 mm 0.00 in0.0 mm
11:21 PM 46.2°F7.9°C -168.2°F-111.2°C - 0.6 mph N1.0 kmh N 2.8 mph4.5 kmh 29.08 in984.8 mb 0.00 in0.0 mm 0.00 in0.0 mm 0.00 in0.0 mm
11:36 PM 46.0°F7.8°C -168.2°F-111.2°C - Calm Calm 0.6 mph1.0 kmh 29.07 in984.4 mb 0.00 in0.0 mm 0.00 in0.0 mm 0.00 in0.0 mm
11:51 PM 46.0°F7.8°C -168.2°F-111.2°C - Calm Calm 2.0 mph3.2 kmh 29.07 in984.4 mb 0.00 in0.0 mm 0.00 in0.0 mm 0.00 in0.0 mm